Armonia.gr — 3EYG9 — position and weather

sailwx.info

Track history (hours):
 
Tides and Currents Weather Stations Pressure Air Temp Water Temp Dewpoint Dewpoint Depression Visibility Wind Speed Wind Dir Waves Ship Positions

Armonia.gr

Last reported at 2017-Oct-17 20:45 UTC. Time now 2017-Oct-17 22:29 UTC.
Position N 47°21' W 007°21'.

Length 199 m; draft 9.9 m.

Type: Cargo ship. MMSI: 374877000.

Date/timePositionNaut miles runAvg speedWind from/ knotsBaromVisibWave heightAir tempDewpointWater temp
2017-Oct-17 20:45N 47°21' W 007°21'12013.2
2017-Oct-17 11:41N 48°59' W 005°36'312.1
2017-Oct-17 11:25N 49°00' W 005°32'512.1
2017-Oct-17 11:00N 49°03' W 005°25'812.6
2017-Oct-17 10:20N 49°07' W 005°14'511.4
2017-Oct-17 09:56N 49°09' W 005°08'6 9.4
2017-Oct-17 09:19N 49°12' W 005°01'410.2
2017-Oct-17 08:55N 49°14' W 004°55'612.9
2017-Oct-17 08:27N 49°17' W 004°47'613.6
2017-Oct-17 07:59N 49°21' W 004°39'613.3
2017-Oct-17 07:30N 49°24' W 004°30'912.5
2017-Oct-17 06:48N 49°28' W 004°19'410.9
2017-Oct-17 06:27N 49°30' W 004°14'6 9.9
2017-Oct-17 05:48N 49°33' W 004°05'7 8.9
2017-Oct-17 04:59N 49°37' W 003°56'4 8.0
2017-Oct-17 04:29N 49°39' W 003°50'4 7.6
2017-Oct-17 03:57N 49°41' W 003°45'6 6.9
2017-Oct-17 03:04N 49°44' W 003°37'1 7.3
2017-Oct-17 03:00N 49°45' W 003°36'4 7.1
2017-Oct-17 02:31N 49°46' W 003°31'4 7.6
2017-Oct-17 02:00N 49°48' W 003°26'4 7.9
2017-Oct-17 01:31N 49°50' W 003°21'4 8.7
2017-Oct-17 01:01N 49°52' W 003°15'5 9.1
2017-Oct-17 00:28N 49°55' W 003°08'510.2
2017-Oct-17 00:00N 49°57' W 003°02'510.0
2017-Oct-16 23:31N 49°60' W 002°55'510.5
2017-Oct-16 23:01N 50°01' W 002°48'610.8
2017-Oct-16 22:30N 50°03' W 002°39'9010.3
2017-Oct-16 13:44N 50°27' W 000°24'315.0
2017-Oct-16 13:30N 50°28' W 000°19'815.1
2017-Oct-16 13:00N 50°30' W 000°07'815.1
2017-Oct-16 12:30N 50°32' E 000°04'815.1
2017-Oct-16 12:00N 50°34' E 000°15'715.0
2017-Oct-16 11:30N 50°36' E 000°27'714.5
2017-Oct-16 11:00N 50°39' E 000°37'714.4
2017-Oct-16 10:30N 50°43' E 000°47'713.9
2017-Oct-16 10:00N 50°47' E 000°55'713.5
2017-Oct-16 09:30N 50°52' E 001°03'713.2
2017-Oct-16 09:00N 50°56' E 001°11'612.9
2017-Oct-16 08:30N 51°00' E 001°19'713.6
2017-Oct-16 08:01N 51°05' E 001°27'714.6
2017-Oct-16 07:30N 51°09' E 001°37'815.1
2017-Oct-16 07:01N 51°14' E 001°46'815.6
2017-Oct-16 06:30N 51°20' E 001°53'816.1
2017-Oct-16 06:00N 51°27' E 002°00'816.3
2017-Oct-16 05:30N 51°34' E 002°08'815.8
2017-Oct-16 05:00N 51°40' E 002°16'815.9
2017-Oct-16 04:30N 51°46' E 002°23'915.5
2017-Oct-16 03:56N 51°53' E 002°31'914.9
2017-Oct-16 03:21N 52°00' E 002°40'814.2
2017-Oct-16 02:48N 52°05' E 002°50'614.1
2017-Oct-16 02:25N 52°09' E 002°56'613.9
2017-Oct-16 01:59N 52°14' E 003°02'713.7
2017-Oct-16 01:30N 52°20' E 003°08'713.4
2017-Oct-16 00:59N 52°25' E 003°15'613.3
2017-Oct-16 00:30N 52°30' E 003°21'713.1
2017-Oct-15 23:59N 52°36' E 003°28'613.0
2017-Oct-15 23:30N 52°41' E 003°34'613.1
2017-Oct-15 23:00N 52°46' E 003°41'713.3
2017-Oct-15 22:31N 52°51' E 003°48'713.7
2017-Oct-15 22:00N 52°56' E 003°56'714.1
2017-Oct-15 21:30N 53°01' E 004°04'714.5
2017-Oct-15 21:00N 53°05' E 004°13'714.7
2017-Oct-15 20:30N 53°10' E 004°23'914.9
2017-Oct-15 19:52N 53°19' E 004°29'614.8
2017-Oct-15 19:29N 53°24' E 004°32'814.6
2017-Oct-15 18:57N 53°31' E 004°36'714.3
2017-Oct-15 18:29N 53°38' E 004°40'3013.7
2017-Oct-15 16:18N 54°06' E 004°59'413.6
2017-Oct-15 16:00N 54°09' E 005°02'913.6
2017-Oct-15 15:22N 54°17' E 005°09'513.7
2017-Oct-15 15:00N 54°21' E 005°13'2113.6
2017-Oct-15 13:27N 54°40' E 005°30'613.8
2017-Oct-15 13:00N 54°46' E 005°35'14313.6
2017-Oct-15 02:28N 56°52' E 007°35'713.8
2017-Oct-15 01:59N 56°58' E 007°41'1113.4
2017-Oct-15 01:10N 57°06' E 007°53'313.2
2017-Oct-15 00:56N 57°09' E 007°57'613.1
2017-Oct-15 00:29N 57°13' E 008°05'612.9
2017-Oct-15 00:00N 57°17' E 008°13'612.5
2017-Oct-14 23:29N 57°21' E 008°22'612.7
2017-Oct-14 22:59N 57°24' E 008°33'812.7
2017-Oct-14 22:21N 57°28' E 008°46'513.0
2017-Oct-14 22:00N 57°29' E 008°54'612.7
2017-Oct-14 21:30N 57°32' E 009°05'2413.0
2017-Oct-14 19:37N 57°42' E 009°47'113.3
2017-Oct-14 19:31N 57°42' E 009°49'1013.2
2017-Oct-14 18:46N 57°45' E 010°07'413.3
2017-Oct-14 18:29N 57°47' E 010°13'613.0
2017-Oct-14 18:00N 57°48' E 010°24'612.6
2017-Oct-14 17:30N 57°48' E 010°36'612.2
2017-Oct-14 16:58N 57°47' E 010°48'713.5
2017-Oct-14 16:28N 57°42' E 010°57'613.6
2017-Oct-14 16:00N 57°38' E 011°06'713.5
2017-Oct-14 15:31N 57°33' E 011°15'713.5
2017-Oct-14 15:01N 57°28' E 011°25'713.5
2017-Oct-14 14:30N 57°22' E 011°30'713.6
2017-Oct-14 14:00N 57°16' E 011°34'713.4
2017-Oct-14 13:31N 57°09' E 011°37'713.1
2017-Oct-14 13:01N 57°03' E 011°42'1213.1
2017-Oct-14 12:07N 56°52' E 011°49'312.8
2017-Oct-14 11:53N 56°49' E 011°51'611.8
2017-Oct-14 11:25N 56°44' E 011°52'8711.7
2017-Oct-14 03:58N 55°21' E 011°02'611.9
2017-Oct-14 03:30N 55°16' E 011°05'510.3
2017-Oct-14 03:00N 55°11' E 011°03'611.6
2017-Oct-14 02:30N 55°05' E 010°60'611.9
2017-Oct-14 02:00N 54°59' E 010°59'612.2
2017-Oct-14 01:30N 54°55' E 010°52'612.5
2017-Oct-14 01:00N 54°48' E 010°50'612.2
2017-Oct-14 00:30N 54°43' E 010°47'510.0
2017-Oct-14 00:00N 54°39' E 010°53'510.9
2017-Oct-13 23:30N 54°36' E 011°01'510.7
2017-Oct-13 23:00N 54°36' E 011°10'611.1
2017-Oct-13 22:30N 54°33' E 011°19'510.6
2017-Oct-13 22:00N 54°31' E 011°27'511.0
2017-Oct-13 21:30N 54°29' E 011°35'611.2
2017-Oct-13 21:00N 54°27' E 011°44'611.5
2017-Oct-13 20:30N 54°27' E 011°54'611.5
2017-Oct-13 20:00N 54°27' E 012°04'5 9.5
2017-Oct-13 19:30N 54°28' E 012°12'611.2
2017-Oct-13 19:00N 54°34' E 012°15'2212.6
2017-Oct-13 17:18N 54°47' E 012°44'513.5
2017-Oct-13 16:57N 54°49' E 012°52'613.6
2017-Oct-13 16:29N 54°51' E 013°02'713.8
2017-Oct-13 15:59N 54°53' E 013°14'814.1
2017-Oct-13 15:25N 54°56' E 013°27'913.9
2017-Oct-13 14:47N 54°59' E 013°41'513.6
2017-Oct-13 14:27N 55°00' E 013°49'713.7
2017-Oct-13 13:58N 55°03' E 013°59'613.5
2017-Oct-13 13:30N 55°07' E 014°08'714.1
2017-Oct-13 13:01N 55°12' E 014°16'714.2
2017-Oct-13 12:31N 55°18' E 014°23'713.9
2017-Oct-13 12:01N 55°23' E 014°31'713.6
2017-Oct-13 11:30N 55°28' E 014°40'713.9
2017-Oct-13 11:00N 55°31' E 014°51'713.8
2017-Oct-13 10:29N 55°35' E 015°02'713.8
2017-Oct-13 10:00N 55°38' E 015°12'713.9
2017-Oct-13 09:30N 55°41' E 015°22'713.8
2017-Oct-13 09:00N 55°45' E 015°33'714.0
2017-Oct-13 08:30N 55°48' E 015°44'714.2
2017-Oct-13 08:00N 55°52' E 015°55'714.1
2017-Oct-13 07:30N 55°55' E 016°06'714.1
2017-Oct-13 07:00N 55°59' E 016°17'714.7
2017-Oct-13 06:30N 56°02' E 016°28'714.7
2017-Oct-13 06:00N 56°06' E 016°39'714.6
2017-Oct-13 05:30N 56°11' E 016°49'714.4
2017-Oct-13 05:00N 56°16' E 016°59'28013.0
2017-Oct-12 07:23N 59°36' E 023°09'514.1
2017-Oct-12 07:00N 59°38' E 023°19'714.4
2017-Oct-12 06:31N 59°39' E 023°32'714.5
2017-Oct-12 06:01N 59°42' E 023°46'713.8
2017-Oct-12 05:30N 59°44' E 023°59'713.2
2017-Oct-12 05:00N 59°45' E 024°12'713.5
2017-Oct-12 04:30N 59°47' E 024°25'713.5
2017-Oct-12 04:00N 59°48' E 024°38'713.4
2017-Oct-12 03:30N 59°50' E 024°51'713.2
2017-Oct-12 03:00N 59°51' E 025°04'713.2
2017-Oct-12 02:28N 59°52' E 025°18'2813.3
2017-Oct-12 00:22N 59°59' E 026°12'513.2
2017-Oct-12 00:00N 59°60' E 026°21'713.1
2017-Oct-11 23:30N 60°01' E 026°34'613.0
2017-Oct-11 23:00N 60°01' E 026°47'612.9
2017-Oct-11 22:30N 59°60' E 026°60'612.6
2017-Oct-11 22:00N 60°02' E 027°11'713.2
2017-Oct-11 21:31N 60°05' E 027°23'714.2
2017-Oct-11 21:00N 60°09' E 027°35'612.5
2017-Oct-11 20:30N 60°12' E 027°46'714.2
2017-Oct-11 20:00N 60°10' E 028°00'510.4
2017-Oct-11 19:30N 60°09' E 028°10'612.1
2017-Oct-11 19:00N 60°06' E 028°21'612.2
2017-Oct-11 18:30N 60°03' E 028°32'4 8.7
2017-Oct-11 18:00N 59°59' E 028°36'4 8.8
2017-Oct-11 17:30N 59°55' E 028°33'5 9.4
2017-Oct-11 17:00N 59°51' E 028°28'10 0.6
2017-Oct-10 23:53N 59°42' E 028°26'0 0.0
2017-Oct-10 23:26N 59°42' E 028°26'0 0.0
2017-Oct-10 22:56N 59°42' E 028°26'0 0.0
2017-Oct-10 22:26N 59°42' E 028°26'0 0.0
2017-Oct-10 21:56N 59°42' E 028°26'0 0.0
2017-Oct-10 21:29N 59°42' E 028°26'0 0.0
2017-Oct-10 20:59N 59°42' E 028°26'0 0.0
2017-Oct-10 20:29N 59°42' E 028°26'0 0.0
2017-Oct-10 19:59N 59°42' E 028°26'0 0.0
2017-Oct-10 19:29N 59°42' E 028°26'0 0.0
2017-Oct-10 18:59N 59°42' E 028°26'0 0.0
2017-Oct-10 18:29N 59°42' E 028°26'0 0.0
2017-Oct-10 17:59N 59°42' E 028°26'0 0.0
2017-Oct-10 17:29N 59°42' E 028°26'0 0.0
2017-Oct-10 16:59N 59°42' E 028°26'0 0.0
2017-Oct-10 16:29N 59°42' E 028°26'0 0.0
2017-Oct-10 15:59N 59°42' E 028°26'0 0.0
2017-Oct-10 15:20N 59°42' E 028°26'0 0.0
2017-Oct-10 14:50N 59°42' E 028°26'0 0.0
2017-Oct-10 13:50N 59°42' E 028°26'0 0.0
2017-Oct-10 13:23N 59°42' E 028°26'0 0.0
2017-Oct-10 12:53N 59°42' E 028°26'0 0.0
2017-Oct-10 12:23N 59°42' E 028°26'0 0.0
2017-Oct-10 11:53N 59°42' E 028°26'0 0.0
2017-Oct-10 11:23N 59°42' E 028°26'0 0.0
2017-Oct-10 10:38N 59°42' E 028°26'0 0.0
2017-Oct-10 10:26N 59°42' E 028°26'0 0.0
2017-Oct-10 09:53N 59°42' E 028°26'0 0.0
2017-Oct-10 09:26N 59°42' E 028°26'0 0.0
2017-Oct-10 08:56N 59°42' E 028°26'0 0.0
2017-Oct-10 08:29N 59°42' E 028°26'0 0.0
2017-Oct-10 07:59N 59°42' E 028°26'0 0.0
2017-Oct-10 07:29N 59°42' E 028°26'0 0.0
2017-Oct-10 06:59N 59°42' E 028°26'0 0.0
2017-Oct-10 06:29N 59°42' E 028°26'0 0.0
2017-Oct-10 05:59N 59°42' E 028°26'0 0.0
2017-Oct-10 05:29N 59°42' E 028°26'0 0.0
2017-Oct-10 04:59N 59°42' E 028°26'0 0.0
2017-Oct-10 04:29N 59°42' E 028°26'0 0.0
2017-Oct-10 03:59N 59°42' E 028°26'0 0.0
2017-Oct-10 03:29N 59°42' E 028°26'0 0.0
2017-Oct-10 02:59N 59°42' E 028°26'0 0.0
2017-Oct-10 02:29N 59°42' E 028°26'0 0.0
2017-Oct-10 01:59N 59°42' E 028°26'0 0.0
2017-Oct-10 01:29N 59°42' E 028°26'0 0.0
2017-Oct-10 00:59N 59°42' E 028°26'0 0.0
2017-Oct-10 00:20N 59°42' E 028°26'0 0.0
2017-Oct-09 23:59N 59°42' E 028°26'0 0.0
2017-Oct-09 23:20N 59°42' E 028°26'0 0.0
2017-Oct-09 22:50N 59°42' E 028°26'0 0.0
2017-Oct-09 22:23N 59°42' E 028°26'0 0.0
2017-Oct-09 21:53N 59°42' E 028°26'0 0.0
2017-Oct-09 21:30N 59°42' E 028°26'0 0.0
2017-Oct-09 21:00N 59°42' E 028°26'2 4.0
2017-Oct-09 20:30N 59°44' E 028°25'4 8.9
2017-Oct-09 20:00N 59°48' E 028°25'611.4
2017-Oct-09 19:30N 59°53' E 028°29'4 8.6
2017-Oct-09 19:00N 59°57' E 028°34'4 8.4
2017-Oct-09 18:30N 60°01' E 028°36'5 9.3
2017-Oct-09 18:00N 60°03' E 028°27'612.8
2017-Oct-09 17:30N 60°06' E 028°17'612.9
2017-Oct-09 17:00N 60°09' E 028°05'713.5
2017-Oct-09 16:30N 60°10' E 027°52'612.2
2017-Oct-09 16:01N 60°09' E 027°40'713.1
2017-Oct-09 15:30N 60°05' E 027°29'612.9
2017-Oct-09 15:01N 60°02' E 027°18'713.8
2017-Oct-09 14:30N 59°58' E 027°06'713.4
2017-Oct-09 14:00N 59°59' E 026°53'612.4
2017-Oct-09 13:30N 59°59' E 026°40'713.3
2017-Oct-09 13:00N 59°57' E 026°27'3713.6
2017-Oct-09 10:18N 59°49' E 025°16'413.6
2017-Oct-09 10:00N 59°48' E 025°08'713.5
2017-Oct-09 09:31N 59°47' E 024°55'714.0
2017-Oct-09 09:01N 59°45' E 024°42'714.1
2017-Oct-09 08:31N 59°44' E 024°28'714.3
2017-Oct-09 08:00N 59°42' E 024°14'715.0
2017-Oct-09 07:30N 59°39' E 024°00'714.7
2017-Oct-09 07:00N 59°37' E 023°46'714.3
2017-Oct-09 06:30N 59°35' E 023°33'714.2
2017-Oct-09 06:00N 59°32' E 023°20'814.5
2017-Oct-09 05:29N 59°29' E 023°06'27614.3
2017-Oct-08 10:14N 56°12' E 017°05'313.9
2017-Oct-08 10:00N 56°10' E 016°60'714.0
2017-Oct-08 09:30N 56°05' E 016°50'714.1
2017-Oct-08 09:00N 56°01' E 016°41'714.1
2017-Oct-08 08:30N 55°57' E 016°30'714.1
2017-Oct-08 08:00N 55°54' E 016°19'714.2
2017-Oct-08 07:30N 55°51' E 016°08'714.3
2017-Oct-08 07:00N 55°47' E 015°57'714.2
2017-Oct-08 06:30N 55°44' E 015°46'714.0
2017-Oct-08 06:00N 55°40' E 015°35'714.3
2017-Oct-08 05:30N 55°37' E 015°24'714.4
2017-Oct-08 05:00N 55°34' E 015°12'714.6
2017-Oct-08 04:30N 55°30' E 015°01'714.5
2017-Oct-08 04:00N 55°27' E 014°50'714.5
2017-Oct-08 03:30N 55°23' E 014°38'714.2
2017-Oct-08 03:00N 55°18' E 014°30'713.9
2017-Oct-08 02:31N 55°12' E 014°23'713.5
2017-Oct-08 02:00N 55°09' E 014°13'1814.7
2017-Oct-08 00:46N 55°10' E 013°41'714.7
2017-Oct-08 00:19N 55°11' E 013°29'514.7
2017-Oct-08 00:00N 55°11' E 013°21'714.8
2017-Oct-07 23:30N 55°12' E 013°08'714.5
2017-Oct-07 23:00N 55°14' E 012°56'713.8
2017-Oct-07 22:30N 55°16' E 012°45'611.9
2017-Oct-07 22:00N 55°20' E 012°37'714.5
2017-Oct-07 21:30N 55°27' E 012°40'713.1
2017-Oct-07 21:00N 55°33' E 012°42'  
Track history (hours):
 
Tides and Currents Weather Stations Pressure Air Temp Water Temp Dewpoint Dewpoint Depression Visibility Wind Speed Wind Dir Waves Ship Positions

Armonia.gr

Last reported at 2017-Oct-17 20:45 UTC. Time now 2017-Oct-17 22:29 UTC.
Position N 47°21' W 007°21'.

Length 199 m; draft 9.9 m.

Type: Cargo ship. MMSI: 374877000.

Date/timePositionNaut miles runAvg speedWind from/ knotsBaromVisibWave heightAir tempDewpointWater temp
2017-Oct-17 20:45N 47°21' W 007°21'12013.2
2017-Oct-17 11:41N 48°59' W 005°36'312.1
2017-Oct-17 11:25N 49°00' W 005°32'512.1
2017-Oct-17 11:00N 49°03' W 005°25'812.6
2017-Oct-17 10:20N 49°07' W 005°14'511.4
2017-Oct-17 09:56N 49°09' W 005°08'6 9.4
2017-Oct-17 09:19N 49°12' W 005°01'410.2
2017-Oct-17 08:55N 49°14' W 004°55'612.9
2017-Oct-17 08:27N 49°17' W 004°47'613.6
2017-Oct-17 07:59N 49°21' W 004°39'613.3
2017-Oct-17 07:30N 49°24' W 004°30'912.5
2017-Oct-17 06:48N 49°28' W 004°19'410.9
2017-Oct-17 06:27N 49°30' W 004°14'6 9.9
2017-Oct-17 05:48N 49°33' W 004°05'7 8.9
2017-Oct-17 04:59N 49°37' W 003°56'4 8.0
2017-Oct-17 04:29N 49°39' W 003°50'4 7.6
2017-Oct-17 03:57N 49°41' W 003°45'6 6.9
2017-Oct-17 03:04N 49°44' W 003°37'1 7.3
2017-Oct-17 03:00N 49°45' W 003°36'4 7.1
2017-Oct-17 02:31N 49°46' W 003°31'4 7.6
2017-Oct-17 02:00N 49°48' W 003°26'4 7.9
2017-Oct-17 01:31N 49°50' W 003°21'4 8.7
2017-Oct-17 01:01N 49°52' W 003°15'5 9.1
2017-Oct-17 00:28N 49°55' W 003°08'510.2
2017-Oct-17 00:00N 49°57' W 003°02'510.0
2017-Oct-16 23:31N 49°60' W 002°55'510.5
2017-Oct-16 23:01N 50°01' W 002°48'610.8
2017-Oct-16 22:30N 50°03' W 002°39'9010.3
2017-Oct-16 13:44N 50°27' W 000°24'315.0
2017-Oct-16 13:30N 50°28' W 000°19'815.1
2017-Oct-16 13:00N 50°30' W 000°07'815.1
2017-Oct-16 12:30N 50°32' E 000°04'815.1
2017-Oct-16 12:00N 50°34' E 000°15'715.0
2017-Oct-16 11:30N 50°36' E 000°27'714.5
2017-Oct-16 11:00N 50°39' E 000°37'714.4
2017-Oct-16 10:30N 50°43' E 000°47'713.9
2017-Oct-16 10:00N 50°47' E 000°55'713.5
2017-Oct-16 09:30N 50°52' E 001°03'713.2
2017-Oct-16 09:00N 50°56' E 001°11'612.9
2017-Oct-16 08:30N 51°00' E 001°19'713.6
2017-Oct-16 08:01N 51°05' E 001°27'714.6
2017-Oct-16 07:30N 51°09' E 001°37'815.1
2017-Oct-16 07:01N 51°14' E 001°46'815.6
2017-Oct-16 06:30N 51°20' E 001°53'816.1
2017-Oct-16 06:00N 51°27' E 002°00'816.3
2017-Oct-16 05:30N 51°34' E 002°08'815.8
2017-Oct-16 05:00N 51°40' E 002°16'815.9
2017-Oct-16 04:30N 51°46' E 002°23'915.5
2017-Oct-16 03:56N 51°53' E 002°31'914.9
2017-Oct-16 03:21N 52°00' E 002°40'814.2
2017-Oct-16 02:48N 52°05' E 002°50'614.1
2017-Oct-16 02:25N 52°09' E 002°56'613.9
2017-Oct-16 01:59N 52°14' E 003°02'713.7
2017-Oct-16 01:30N 52°20' E 003°08'713.4
2017-Oct-16 00:59N 52°25' E 003°15'613.3
2017-Oct-16 00:30N 52°30' E 003°21'713.1
2017-Oct-15 23:59N 52°36' E 003°28'613.0
2017-Oct-15 23:30N 52°41' E 003°34'613.1
2017-Oct-15 23:00N 52°46' E 003°41'713.3
2017-Oct-15 22:31N 52°51' E 003°48'713.7
2017-Oct-15 22:00N 52°56' E 003°56'714.1
2017-Oct-15 21:30N 53°01' E 004°04'714.5
2017-Oct-15 21:00N 53°05' E 004°13'714.7
2017-Oct-15 20:30N 53°10' E 004°23'914.9
2017-Oct-15 19:52N 53°19' E 004°29'614.8
2017-Oct-15 19:29N 53°24' E 004°32'814.6
2017-Oct-15 18:57N 53°31' E 004°36'714.3
2017-Oct-15 18:29N 53°38' E 004°40'3013.7
2017-Oct-15 16:18N 54°06' E 004°59'413.6
2017-Oct-15 16:00N 54°09' E 005°02'913.6
2017-Oct-15 15:22N 54°17' E 005°09'513.7
2017-Oct-15 15:00N 54°21' E 005°13'2113.6
2017-Oct-15 13:27N 54°40' E 005°30'613.8
2017-Oct-15 13:00N 54°46' E 005°35'14313.6
2017-Oct-15 02:28N 56°52' E 007°35'713.8
2017-Oct-15 01:59N 56°58' E 007°41'1113.4
2017-Oct-15 01:10N 57°06' E 007°53'313.2
2017-Oct-15 00:56N 57°09' E 007°57'613.1
2017-Oct-15 00:29N 57°13' E 008°05'612.9
2017-Oct-15 00:00N 57°17' E 008°13'612.5
2017-Oct-14 23:29N 57°21' E 008°22'612.7
2017-Oct-14 22:59N 57°24' E 008°33'812.7
2017-Oct-14 22:21N 57°28' E 008°46'513.0
2017-Oct-14 22:00N 57°29' E 008°54'612.7
2017-Oct-14 21:30N 57°32' E 009°05'2413.0
2017-Oct-14 19:37N 57°42' E 009°47'113.3
2017-Oct-14 19:31N 57°42' E 009°49'1013.2
2017-Oct-14 18:46N 57°45' E 010°07'413.3
2017-Oct-14 18:29N 57°47' E 010°13'613.0
2017-Oct-14 18:00N 57°48' E 010°24'612.6
2017-Oct-14 17:30N 57°48' E 010°36'612.2
2017-Oct-14 16:58N 57°47' E 010°48'713.5
2017-Oct-14 16:28N 57°42' E 010°57'613.6
2017-Oct-14 16:00N 57°38' E 011°06'713.5
2017-Oct-14 15:31N 57°33' E 011°15'713.5
2017-Oct-14 15:01N 57°28' E 011°25'713.5
2017-Oct-14 14:30N 57°22' E 011°30'713.6
2017-Oct-14 14:00N 57°16' E 011°34'713.4
2017-Oct-14 13:31N 57°09' E 011°37'713.1
2017-Oct-14 13:01N 57°03' E 011°42'1213.1
2017-Oct-14 12:07N 56°52' E 011°49'312.8
2017-Oct-14 11:53N 56°49' E 011°51'611.8
2017-Oct-14 11:25N 56°44' E 011°52'8711.7
2017-Oct-14 03:58N 55°21' E 011°02'611.9
2017-Oct-14 03:30N 55°16' E 011°05'510.3
2017-Oct-14 03:00N 55°11' E 011°03'611.6
2017-Oct-14 02:30N 55°05' E 010°60'611.9
2017-Oct-14 02:00N 54°59' E 010°59'612.2
2017-Oct-14 01:30N 54°55' E 010°52'612.5
2017-Oct-14 01:00N 54°48' E 010°50'612.2
2017-Oct-14 00:30N 54°43' E 010°47'510.0
2017-Oct-14 00:00N 54°39' E 010°53'510.9
2017-Oct-13 23:30N 54°36' E 011°01'510.7
2017-Oct-13 23:00N 54°36' E 011°10'611.1
2017-Oct-13 22:30N 54°33' E 011°19'510.6
2017-Oct-13 22:00N 54°31' E 011°27'511.0
2017-Oct-13 21:30N 54°29' E 011°35'611.2
2017-Oct-13 21:00N 54°27' E 011°44'611.5
2017-Oct-13 20:30N 54°27' E 011°54'611.5
2017-Oct-13 20:00N 54°27' E 012°04'5 9.5
2017-Oct-13 19:30N 54°28' E 012°12'611.2
2017-Oct-13 19:00N 54°34' E 012°15'2212.6
2017-Oct-13 17:18N 54°47' E 012°44'513.5
2017-Oct-13 16:57N 54°49' E 012°52'613.6
2017-Oct-13 16:29N 54°51' E 013°02'713.8
2017-Oct-13 15:59N 54°53' E 013°14'814.1
2017-Oct-13 15:25N 54°56' E 013°27'913.9
2017-Oct-13 14:47N 54°59' E 013°41'513.6
2017-Oct-13 14:27N 55°00' E 013°49'713.7
2017-Oct-13 13:58N 55°03' E 013°59'613.5
2017-Oct-13 13:30N 55°07' E 014°08'714.1
2017-Oct-13 13:01N 55°12' E 014°16'714.2
2017-Oct-13 12:31N 55°18' E 014°23'713.9
2017-Oct-13 12:01N 55°23' E 014°31'713.6
2017-Oct-13 11:30N 55°28' E 014°40'713.9
2017-Oct-13 11:00N 55°31' E 014°51'713.8
2017-Oct-13 10:29N 55°35' E 015°02'713.8
2017-Oct-13 10:00N 55°38' E 015°12'713.9
2017-Oct-13 09:30N 55°41' E 015°22'713.8
2017-Oct-13 09:00N 55°45' E 015°33'714.0
2017-Oct-13 08:30N 55°48' E 015°44'714.2
2017-Oct-13 08:00N 55°52' E 015°55'714.1
2017-Oct-13 07:30N 55°55' E 016°06'714.1
2017-Oct-13 07:00N 55°59' E 016°17'714.7
2017-Oct-13 06:30N 56°02' E 016°28'714.7
2017-Oct-13 06:00N 56°06' E 016°39'714.6
2017-Oct-13 05:30N 56°11' E 016°49'714.4
2017-Oct-13 05:00N 56°16' E 016°59'28013.0
2017-Oct-12 07:23N 59°36' E 023°09'514.1
2017-Oct-12 07:00N 59°38' E 023°19'714.4
2017-Oct-12 06:31N 59°39' E 023°32'714.5
2017-Oct-12 06:01N 59°42' E 023°46'713.8
2017-Oct-12 05:30N 59°44' E 023°59'713.2
2017-Oct-12 05:00N 59°45' E 024°12'713.5
2017-Oct-12 04:30N 59°47' E 024°25'713.5
2017-Oct-12 04:00N 59°48' E 024°38'713.4
2017-Oct-12 03:30N 59°50' E 024°51'713.2
2017-Oct-12 03:00N 59°51' E 025°04'713.2
2017-Oct-12 02:28N 59°52' E 025°18'2813.3
2017-Oct-12 00:22N 59°59' E 026°12'513.2
2017-Oct-12 00:00N 59°60' E 026°21'713.1
2017-Oct-11 23:30N 60°01' E 026°34'613.0
2017-Oct-11 23:00N 60°01' E 026°47'612.9
2017-Oct-11 22:30N 59°60' E 026°60'612.6
2017-Oct-11 22:00N 60°02' E 027°11'713.2
2017-Oct-11 21:31N 60°05' E 027°23'714.2
2017-Oct-11 21:00N 60°09' E 027°35'612.5
2017-Oct-11 20:30N 60°12' E 027°46'714.2
2017-Oct-11 20:00N 60°10' E 028°00'510.4
2017-Oct-11 19:30N 60°09' E 028°10'612.1
2017-Oct-11 19:00N 60°06' E 028°21'612.2
2017-Oct-11 18:30N 60°03' E 028°32'4 8.7
2017-Oct-11 18:00N 59°59' E 028°36'4 8.8
2017-Oct-11 17:30N 59°55' E 028°33'5 9.4
2017-Oct-11 17:00N 59°51' E 028°28'10 0.6
2017-Oct-10 23:53N 59°42' E 028°26'0 0.0
2017-Oct-10 23:26N 59°42' E 028°26'0 0.0
2017-Oct-10 22:56N 59°42' E 028°26'0 0.0
2017-Oct-10 22:26N 59°42' E 028°26'0 0.0
2017-Oct-10 21:56N 59°42' E 028°26'0 0.0
2017-Oct-10 21:29N 59°42' E 028°26'0 0.0
2017-Oct-10 20:59N 59°42' E 028°26'0 0.0
2017-Oct-10 20:29N 59°42' E 028°26'0 0.0
2017-Oct-10 19:59N 59°42' E 028°26'0 0.0
2017-Oct-10 19:29N 59°42' E 028°26'0 0.0
2017-Oct-10 18:59N 59°42' E 028°26'0 0.0
2017-Oct-10 18:29N 59°42' E 028°26'0 0.0
2017-Oct-10 17:59N 59°42' E 028°26'0 0.0
2017-Oct-10 17:29N 59°42' E 028°26'0 0.0
2017-Oct-10 16:59N 59°42' E 028°26'0 0.0
2017-Oct-10 16:29N 59°42' E 028°26'0 0.0
2017-Oct-10 15:59N 59°42' E 028°26'0 0.0
2017-Oct-10 15:20N 59°42' E 028°26'0 0.0
2017-Oct-10 14:50N 59°42' E 028°26'0 0.0
2017-Oct-10 13:50N 59°42' E 028°26'0 0.0
2017-Oct-10 13:23N 59°42' E 028°26'0 0.0
2017-Oct-10 12:53N 59°42' E 028°26'0 0.0
2017-Oct-10 12:23N 59°42' E 028°26'0 0.0
2017-Oct-10 11:53N 59°42' E 028°26'0 0.0
2017-Oct-10 11:23N 59°42' E 028°26'0 0.0
2017-Oct-10 10:38N 59°42' E 028°26'0 0.0
2017-Oct-10 10:26N 59°42' E 028°26'0 0.0
2017-Oct-10 09:53N 59°42' E 028°26'0 0.0
2017-Oct-10 09:26N 59°42' E 028°26'0 0.0
2017-Oct-10 08:56N 59°42' E 028°26'0 0.0
2017-Oct-10 08:29N 59°42' E 028°26'0 0.0
2017-Oct-10 07:59N 59°42' E 028°26'0 0.0
2017-Oct-10 07:29N 59°42' E 028°26'0 0.0
2017-Oct-10 06:59N 59°42' E 028°26'0 0.0
2017-Oct-10 06:29N 59°42' E 028°26'0 0.0
2017-Oct-10 05:59N 59°42' E 028°26'0 0.0
2017-Oct-10 05:29N 59°42' E 028°26'0 0.0
2017-Oct-10 04:59N 59°42' E 028°26'0 0.0
2017-Oct-10 04:29N 59°42' E 028°26'0 0.0
2017-Oct-10 03:59N 59°42' E 028°26'0 0.0
2017-Oct-10 03:29N 59°42' E 028°26'0 0.0
2017-Oct-10 02:59N 59°42' E 028°26'0 0.0
2017-Oct-10 02:29N 59°42' E 028°26'0 0.0
2017-Oct-10 01:59N 59°42' E 028°26'0 0.0
2017-Oct-10 01:29N 59°42' E 028°26'0 0.0
2017-Oct-10 00:59N 59°42' E 028°26'0 0.0
2017-Oct-10 00:20N 59°42' E 028°26'0 0.0
2017-Oct-09 23:59N 59°42' E 028°26'0 0.0
2017-Oct-09 23:20N 59°42' E 028°26'0 0.0
2017-Oct-09 22:50N 59°42' E 028°26'0 0.0
2017-Oct-09 22:23N 59°42' E 028°26'0 0.0
2017-Oct-09 21:53N 59°42' E 028°26'0 0.0
2017-Oct-09 21:30N 59°42' E 028°26'0 0.0
2017-Oct-09 21:00N 59°42' E 028°26'2 4.0
2017-Oct-09 20:30N 59°44' E 028°25'4 8.9
2017-Oct-09 20:00N 59°48' E 028°25'611.4
2017-Oct-09 19:30N 59°53' E 028°29'4 8.6
2017-Oct-09 19:00N 59°57' E 028°34'4 8.4
2017-Oct-09 18:30N 60°01' E 028°36'5 9.3
2017-Oct-09 18:00N 60°03' E 028°27'612.8
2017-Oct-09 17:30N 60°06' E 028°17'612.9
2017-Oct-09 17:00N 60°09' E 028°05'713.5
2017-Oct-09 16:30N 60°10' E 027°52'612.2
2017-Oct-09 16:01N 60°09' E 027°40'713.1
2017-Oct-09 15:30N 60°05' E 027°29'612.9
2017-Oct-09 15:01N 60°02' E 027°18'713.8
2017-Oct-09 14:30N 59°58' E 027°06'713.4
2017-Oct-09 14:00N 59°59' E 026°53'612.4
2017-Oct-09 13:30N 59°59' E 026°40'713.3
2017-Oct-09 13:00N 59°57' E 026°27'3713.6
2017-Oct-09 10:18N 59°49' E 025°16'413.6
2017-Oct-09 10:00N 59°48' E 025°08'713.5
2017-Oct-09 09:31N 59°47' E 024°55'714.0
2017-Oct-09 09:01N 59°45' E 024°42'714.1
2017-Oct-09 08:31N 59°44' E 024°28'714.3
2017-Oct-09 08:00N 59°42' E 024°14'715.0
2017-Oct-09 07:30N 59°39' E 024°00'714.7
2017-Oct-09 07:00N 59°37' E 023°46'714.3
2017-Oct-09 06:30N 59°35' E 023°33'714.2
2017-Oct-09 06:00N 59°32' E 023°20'814.5
2017-Oct-09 05:29N 59°29' E 023°06'27614.3
2017-Oct-08 10:14N 56°12' E 017°05'313.9
2017-Oct-08 10:00N 56°10' E 016°60'714.0
2017-Oct-08 09:30N 56°05' E 016°50'714.1
2017-Oct-08 09:00N 56°01' E 016°41'714.1
2017-Oct-08 08:30N 55°57' E 016°30'714.1
2017-Oct-08 08:00N 55°54' E 016°19'714.2
2017-Oct-08 07:30N 55°51' E 016°08'714.3
2017-Oct-08 07:00N 55°47' E 015°57'714.2
2017-Oct-08 06:30N 55°44' E 015°46'714.0
2017-Oct-08 06:00N 55°40' E 015°35'714.3
2017-Oct-08 05:30N 55°37' E 015°24'714.4
2017-Oct-08 05:00N 55°34' E 015°12'714.6
2017-Oct-08 04:30N 55°30' E 015°01'714.5
2017-Oct-08 04:00N 55°27' E 014°50'714.5
2017-Oct-08 03:30N 55°23' E 014°38'714.2
2017-Oct-08 03:00N 55°18' E 014°30'713.9
2017-Oct-08 02:31N 55°12' E 014°23'713.5
2017-Oct-08 02:00N 55°09' E 014°13'1814.7
2017-Oct-08 00:46N 55°10' E 013°41'714.7
2017-Oct-08 00:19N 55°11' E 013°29'514.7
2017-Oct-08 00:00N 55°11' E 013°21'714.8
2017-Oct-07 23:30N 55°12' E 013°08'714.5
2017-Oct-07 23:00N 55°14' E 012°56'713.8
2017-Oct-07 22:30N 55°16' E 012°45'611.9
2017-Oct-07 22:00N 55°20' E 012°37'714.5
2017-Oct-07 21:30N 55°27' E 012°40'713.1
2017-Oct-07 21:00N 55°33' E 012°42'  

Dump ship's entire track history